Time;durP1;ratioP1;P1;durP2;ratioP2;P2;SDS_P1;SDS_P2;PMS_P1;PMS_P2;Temp;Humidity;BMP_temperature;BMP_pressure;BME280_temperature;BME280_humidity;BME280_pressure;Samples;Min_cycle;Max_cycle;Signal;HPM_P1;HPM_P2
2021/06/20 00:02:24;;;;;;;8.87;5.57;;;20.20;99.90;;;;;;4427846;28;658049;-72
2021/06/20 00:05:13;;;;;;;9.53;5.33;;;20.10;99.90;;;;;;4450809;28;656501;-72
2021/06/20 00:08:01;;;;;;;8.45;5.30;;;20.10;99.90;;;;;;4427686;28;657196;-72
2021/06/20 00:10:49;;;;;;;10.40;4.90;;;20.10;99.90;;;;;;4431746;28;656435;-72
2021/06/20 00:13:38;;;;;;;9.30;5.27;;;20.00;99.90;;;;;;4449496;28;658157;-72
2021/06/20 00:16:26;;;;;;;10.47;5.13;;;20.00;99.90;;;;;;4431840;28;656744;-72
2021/06/20 00:19:13;;;;;;;8.33;5.43;;;20.00;99.90;;;;;;4430546;28;658950;-72
2021/06/20 00:22:01;;;;;;;7.43;4.90;;;19.90;99.90;;;;;;4450592;28;657338;-72
2021/06/20 00:24:48;;;;;;;11.00;5.00;;;19.90;99.90;;;;;;4431390;28;656435;-72
2021/06/20 00:27:36;;;;;;;7.07;4.43;;;19.80;99.90;;;;;;4449277;28;657756;-72
2021/06/20 00:30:27;;;;;;;8.80;4.47;;;19.80;99.90;;;;;;4428248;28;656209;-72
2021/06/20 00:33:14;;;;;;;7.63;4.67;;;19.70;99.90;;;;;;4427595;28;658080;-72
2021/06/20 00:36:02;;;;;;;6.83;5.10;;;19.70;99.90;;;;;;4450396;28;657510;-72
2021/06/20 00:38:49;;;;;;;6.33;4.87;;;19.70;99.90;;;;;;4427511;28;657965;-72
2021/06/20 00:41:38;;;;;;;10.13;4.80;;;19.70;99.90;;;;;;4450277;28;656896;-72
2021/06/20 00:44:26;;;;;;;7.80;5.10;;;19.60;99.90;;;;;;4426059;28;658012;-72
2021/06/20 00:47:15;;;;;;;7.87;4.47;;;19.60;99.90;;;;;;4431154;28;657019;-72
2021/06/20 00:50:03;;;;;;;7.60;4.70;;;19.50;99.90;;;;;;4449484;28;656562;-71
2021/06/20 00:52:51;;;;;;;7.03;4.60;;;19.50;99.90;;;;;;4450314;28;657033;-72
2021/06/20 00:55:38;;;;;;;9.67;4.50;;;19.40;99.90;;;;;;4430595;28;656642;-72
2021/06/20 00:58:26;;;;;;;8.23;4.80;;;19.40;99.90;;;;;;4450602;28;657077;-72
2021/06/20 01:01:13;;;;;;;10.87;4.30;;;19.30;99.90;;;;;;4430006;28;656803;-72
2021/06/20 01:04:02;;;;;;;9.17;4.77;;;19.30;99.90;;;;;;4448924;28;658538;-72
2021/06/20 01:06:50;;;;;;;5.63;4.40;;;19.30;99.90;;;;;;4430119;28;657514;-72
2021/06/20 01:09:38;;;;;;;6.47;5.03;;;19.20;99.90;;;;;;4445468;28;656650;-70
2021/06/20 01:12:25;;;;;;;7.53;4.77;;;19.20;99.90;;;;;;4457225;28;657407;-72
2021/06/20 01:15:14;;;;;;;7.10;4.53;;;19.20;99.90;;;;;;4434347;28;656580;-71
2021/06/20 01:18:02;;;;;;;7.37;4.90;;;19.20;99.90;;;;;;4453140;28;656786;-72
2021/06/20 01:20:51;;;;;;;9.70;5.23;;;19.10;99.90;;;;;;4430291;28;658231;-72
2021/06/20 01:23:40;;;;;;;7.43;4.90;;;19.10;99.90;;;;;;4433891;28;656895;-72
2021/06/20 01:26:27;;;;;;;9.87;4.83;;;19.10;99.90;;;;;;4457068;28;656247;-73
2021/06/20 01:29:17;;;;;;;7.33;4.70;;;19.10;99.90;;;;;;4429296;28;657649;-72
2021/06/20 01:32:05;;;;;;;6.77;4.63;;;19.00;99.90;;;;;;4434271;28;657748;-72
2021/06/20 01:34:53;;;;;;;9.87;4.97;;;18.90;99.90;;;;;;4434119;28;656490;-71
2021/06/20 01:37:41;;;;;;;10.00;5.13;;;18.90;99.90;;;;;;4456456;28;657339;-72
2021/06/20 01:40:29;;;;;;;9.40;5.00;;;18.90;99.90;;;;;;4432765;28;657499;-71
2021/06/20 01:43:17;;;;;;;6.67;4.53;;;18.90;99.90;;;;;;4453000;28;656508;-72
2021/06/20 01:46:05;;;;;;;6.13;4.40;;;18.90;99.90;;;;;;4429991;28;657764;-72
2021/06/20 01:48:53;;;;;;;7.50;4.73;;;18.90;99.90;;;;;;4443507;28;656420;-70
2021/06/20 01:51:43;;;;;;;5.33;4.57;;;18.80;99.90;;;;;;4452783;28;657683;-72
2021/06/20 01:54:34;;;;;;;6.03;4.77;;;18.80;99.90;;;;;;4429701;28;657634;-72
2021/06/20 01:57:25;;;;;;;7.80;5.17;;;18.80;99.90;;;;;;4429950;28;656772;-72
2021/06/20 02:00:14;;;;;;;8.53;4.77;;;18.70;99.90;;;;;;4410746;28;658060;-70
2021/06/20 02:03:07;;;;;;;5.00;4.50;;;18.70;99.90;;;;;;4452428;28;656486;-72
2021/06/20 02:05:57;;;;;;;6.20;4.40;;;18.70;99.90;;;;;;4433698;28;656410;-72
2021/06/20 02:08:44;;;;;;;6.70;4.50;;;18.60;99.90;;;;;;4433850;28;657217;-72
2021/06/20 02:11:32;;;;;;;9.23;4.53;;;18.60;99.90;;;;;;4452168;28;657059;-72
2021/06/20 02:14:21;;;;;;;5.70;4.57;;;18.60;99.90;;;;;;4433631;28;657831;-72
2021/06/20 02:17:24;;;;;;;5.43;4.60;;;18.50;99.90;;;;;;4433332;28;656573;-72
2021/06/20 02:20:13;;;;;;;7.00;4.47;;;18.50;99.90;;;;;;4427736;28;656875;-72
2021/06/20 02:23:01;;;;;;;8.13;5.13;;;18.50;99.90;;;;;;4429316;28;656792;-70
2021/06/20 02:25:48;;;;;;;6.90;4.60;;;18.50;99.90;;;;;;4433102;28;656942;-70
2021/06/20 02:28:36;;;;;;;5.70;4.77;;;18.40;99.90;;;;;;4452132;28;656759;-70
2021/06/20 02:31:25;;;;;;;7.57;4.83;;;18.40;99.90;;;;;;4433276;28;656616;-70
2021/06/20 02:34:13;;;;;;;6.67;4.87;;;18.30;99.90;;;;;;4444625;28;656653;-68
2021/06/20 02:37:00;;;;;;;12.80;4.90;;;18.20;99.90;;;;;;4452126;28;657622;-71
2021/06/20 02:39:48;;;;;;;8.60;5.20;;;18.20;99.90;;;;;;4431645;28;657925;-69
2021/06/20 02:42:37;;;;;;;9.33;5.10;;;18.10;99.90;;;;;;4451907;28;657386;-71
2021/06/20 02:45:24;;;;;;;9.90;4.90;;;18.10;99.90;;;;;;4428520;28;656809;-70
2021/06/20 02:48:13;;;;;;;6.63;4.97;;;18.10;99.90;;;;;;4451981;28;656106;-71
2021/06/20 02:51:01;;;;;;;7.10;4.73;;;18.10;99.90;;;;;;4428974;28;657415;-70
2021/06/20 02:53:49;;;;;;;8.23;4.87;;;18.10;99.90;;;;;;4432826;28;656557;-70
2021/06/20 02:56:36;;;;;;;6.37;5.10;;;18.10;99.90;;;;;;4451800;28;657444;-70
2021/06/20 02:59:23;;;;;;;8.00;5.07;;;18.10;99.90;;;;;;4432500;28;657032;-71
2021/06/20 03:02:11;;;;;;;6.60;4.47;;;18.10;99.90;;;;;;4451627;28;657275;-71
2021/06/20 03:05:00;;;;;;;7.60;4.27;;;18.10;99.90;;;;;;4432671;28;656486;-71
2021/06/20 03:07:48;;;;;;;7.07;4.90;;;18.10;99.90;;;;;;4436804;28;656911;-69
2021/06/20 03:10:35;;;;;;;9.00;4.67;;;18.10;99.90;;;;;;4451227;28;656766;-70
2021/06/20 03:13:23;;;;;;;9.83;5.07;;;18.10;99.90;;;;;;4432154;28;656449;-69
2021/06/20 03:16:10;;;;;;;10.43;5.20;;;18.10;99.90;;;;;;4452307;28;657688;-70
2021/06/20 03:19:01;;;;;;;8.23;4.80;;;18.10;99.90;;;;;;4430844;28;658304;-70
2021/06/20 03:21:50;;;;;;;7.90;4.87;;;18.10;99.90;;;;;;4432397;28;656464;-70
2021/06/20 03:24:39;;;;;;;9.73;5.40;;;18.20;99.90;;;;;;4445469;28;656509;-69
2021/06/20 03:27:27;;;;;;;8.23;5.30;;;18.20;99.90;;;;;;4449819;28;656053;-70
2021/06/20 03:30:15;;;;;;;7.53;5.10;;;18.30;99.90;;;;;;4432473;28;656641;-70
2021/06/20 03:33:03;;;;;;;8.53;5.03;;;18.30;99.90;;;;;;4434343;28;656800;-68
2021/06/20 03:35:50;;;;;;;7.93;5.67;;;18.30;99.90;;;;;;4450874;28;656704;-71
2021/06/20 03:38:40;;;;;;;9.47;5.40;;;18.40;99.90;;;;;;4431955;28;656780;-69
2021/06/20 03:41:28;;;;;;;8.20;5.35;;;18.40;99.90;;;;;;4435180;28;656658;-69
2021/06/20 03:44:16;;;;;;;10.77;5.50;;;18.40;99.90;;;;;;4454850;28;657510;-70
2021/06/20 03:47:03;;;;;;;9.57;5.67;;;18.50;99.90;;;;;;4430861;28;657522;-69
2021/06/20 03:49:51;;;;;;;8.77;5.27;;;18.60;99.90;;;;;;4451186;28;657073;-70
2021/06/20 03:52:39;;;;;;;7.77;5.40;;;18.60;99.90;;;;;;4431965;28;656359;-70
2021/06/20 03:55:28;;;;;;;9.33;5.53;;;18.70;99.90;;;;;;4450824;28;656794;-70
2021/06/20 03:58:16;;;;;;;9.40;6.03;;;18.80;99.90;;;;;;4428124;28;656999;-72
2021/06/20 04:01:04;;;;;;;8.30;5.27;;;18.80;99.90;;;;;;4431840;28;656357;-72
2021/06/20 04:03:52;;;;;;;8.43;5.57;;;18.90;99.90;;;;;;4450340;28;656106;-72
2021/06/20 04:06:39;;;;;;;9.27;5.60;;;19.00;99.90;;;;;;4432036;28;656783;-72
2021/06/20 04:09:27;;;;;;;7.13;5.73;;;19.10;99.90;;;;;;4450749;28;657462;-72
2021/06/20 04:12:16;;;;;;;10.00;6.10;;;19.20;99.90;;;;;;4432246;28;657444;-72
2021/06/20 04:15:03;;;;;;;7.53;6.10;;;19.30;99.90;;;;;;4430606;28;657767;-71
2021/06/20 04:17:51;;;;;;;8.03;5.97;;;19.30;99.90;;;;;;4449311;28;656620;-72
2021/06/20 04:20:38;;;;;;;10.23;6.00;;;19.40;99.90;;;;;;4431821;28;656336;-71
2021/06/20 04:23:26;;;;;;;9.50;5.80;;;19.50;99.90;;;;;;4448937;28;658368;-72
2021/06/20 04:26:13;;;;;;;8.83;5.83;;;19.70;99.90;;;;;;4428933;28;656298;-72
2021/06/20 04:29:04;;;;;;;7.90;6.00;;;19.70;99.90;;;;;;4450960;28;657173;-72
2021/06/20 04:31:51;;;;;;;7.68;5.72;;;19.80;99.90;;;;;;4424389;28;656777;-73
2021/06/20 04:34:39;;;;;;;9.70;6.07;;;19.80;99.90;;;;;;4431830;28;656436;-71
2021/06/20 04:37:26;;;;;;;12.47;6.50;;;19.90;99.90;;;;;;4450637;28;657029;-72
2021/06/20 04:40:16;;;;;;;12.73;6.30;;;19.90;99.90;;;;;;4430359;28;657466;-72
2021/06/20 04:43:07;;;;;;;11.03;6.13;;;20.00;99.90;;;;;;4431651;28;657944;-72
2021/06/20 04:45:56;;;;;;;7.87;5.97;;;20.10;99.90;;;;;;4429761;28;658906;-72
2021/06/20 04:48:44;;;;;;;13.00;6.77;;;20.10;99.90;;;;;;4435095;28;656410;-70
2021/06/20 04:51:32;;;;;;;12.70;6.83;;;20.20;99.90;;;;;;4452615;28;657976;-70
2021/06/20 04:54:20;;;;;;;11.07;6.03;;;20.20;99.90;;;;;;4433871;28;658574;-71
2021/06/20 04:57:08;;;;;;;9.80;6.40;;;20.20;99.90;;;;;;4444389;28;657848;-69
2021/06/20 04:59:57;;;;;;;11.03;6.50;;;20.30;99.90;;;;;;4455391;28;657003;-70
2021/06/20 05:02:46;;;;;;;8.97;6.60;;;20.30;99.90;;;;;;4433421;28;658605;-69
2021/06/20 05:05:33;;;;;;;10.23;6.60;;;20.40;99.90;;;;;;4434656;28;656288;-70
2021/06/20 05:08:21;;;;;;;11.17;6.37;;;20.50;99.90;;;;;;4452524;28;658905;-70
2021/06/20 05:11:08;;;;;;;9.27;6.50;;;20.60;99.90;;;;;;4433477;28;657899;-70
2021/06/20 05:13:56;;;;;;;13.77;6.60;;;20.70;99.90;;;;;;4453092;28;656838;-70
2021/06/20 05:16:43;;;;;;;9.80;6.40;;;20.70;99.90;;;;;;4432895;28;658148;-70
2021/06/20 05:19:32;;;;;;;9.07;6.30;;;20.80;99.90;;;;;;4453516;28;658559;-70
2021/06/20 05:22:20;;;;;;;7.67;5.87;;;20.80;99.90;;;;;;4430333;28;658499;-70
2021/06/20 05:25:08;;;;;;;9.33;6.20;;;20.90;99.90;;;;;;4434127;28;656773;-69
2021/06/20 05:27:56;;;;;;;9.33;5.83;;;21.10;99.90;;;;;;4453333;28;657438;-70
2021/06/20 05:30:45;;;;;;;9.90;6.20;;;21.20;99.90;;;;;;4431533;28;656444;-70
2021/06/20 05:33:33;;;;;;;10.07;5.93;;;21.20;99.90;;;;;;4434054;28;656896;-69
2021/06/20 05:36:22;;;;;;;8.63;6.17;;;21.30;99.90;;;;;;4452220;28;659370;-70
2021/06/20 05:39:10;;;;;;;11.33;6.10;;;21.40;99.90;;;;;;4430163;28;657902;-70
2021/06/20 05:41:58;;;;;;;7.83;5.40;;;21.40;99.90;;;;;;4450922;28;658042;-68
2021/06/20 05:44:45;;;;;;;10.67;6.00;;;21.50;99.90;;;;;;4452882;28;657414;-70
2021/06/20 05:47:33;;;;;;;9.23;5.83;;;21.60;99.90;;;;;;4436615;28;657211;-68
2021/06/20 05:50:21;;;;;;;7.37;5.93;;;21.70;99.90;;;;;;4457071;28;656877;-70
2021/06/20 05:53:09;;;;;;;8.83;6.17;;;21.80;99.90;;;;;;4433842;28;656294;-69
2021/06/20 05:55:57;;;;;;;8.20;6.20;;;21.90;99.90;;;;;;4452884;28;656914;-69
2021/06/20 05:58:45;;;;;;;9.13;5.80;;;22.00;99.90;;;;;;4429789;28;657850;-70
2021/06/20 06:01:33;;;;;;;7.60;5.67;;;22.00;99.90;;;;;;4450045;28;656643;-68
2021/06/20 06:04:20;;;;;;;10.03;6.00;;;22.20;99.90;;;;;;4453351;28;657838;-70
2021/06/20 06:07:08;;;;;;;8.30;5.73;;;22.20;99.90;;;;;;4432289;28;657776;-68
2021/06/20 06:09:57;;;;;;;10.43;5.70;;;22.30;99.90;;;;;;4452215;28;658009;-70
2021/06/20 06:12:45;;;;;;;7.57;5.57;;;22.40;99.90;;;;;;4428351;28;657833;-70
2021/06/20 06:15:33;;;;;;;11.27;5.40;;;22.40;99.90;;;;;;4449711;28;657280;-69
2021/06/20 06:18:20;;;;;;;11.00;5.33;;;22.40;99.90;;;;;;4455377;28;658467;-70
2021/06/20 06:21:08;;;;;;;10.50;5.07;;;22.50;99.90;;;;;;4432289;28;657637;-69
2021/06/20 06:23:56;;;;;;;7.47;5.17;;;22.60;99.90;;;;;;4453711;28;658004;-70
2021/06/20 06:26:45;;;;;;;7.53;5.90;;;22.70;99.90;;;;;;4432472;28;656269;-69
2021/06/20 06:29:32;;;;;;;10.43;5.80;;;22.80;99.90;;;;;;4452356;28;656844;-70
2021/06/20 06:32:20;;;;;;;6.10;4.80;;;23.00;99.90;;;;;;4428012;28;658832;-69
2021/06/20 06:35:09;;;;;;;7.67;4.87;;;23.10;99.90;;;;;;4451761;28;656446;-69
2021/06/20 06:37:57;;;;;;;8.50;5.67;;;23.30;99.90;;;;;;4451911;28;656412;-70
2021/06/20 06:40:44;;;;;;;6.47;4.80;;;23.30;99.90;;;;;;4433212;28;656543;-69
2021/06/20 06:43:33;;;;;;;7.23;4.70;;;23.40;99.90;;;;;;4451520;28;656423;-69
2021/06/20 06:46:21;;;;;;;6.13;4.67;;;23.50;99.90;;;;;;4428796;28;657395;-70
2021/06/20 06:49:08;;;;;;;9.63;4.87;;;23.60;99.90;;;;;;4432917;28;656767;-69
2021/06/20 06:51:56;;;;;;;8.03;4.17;;;23.80;99.90;;;;;;4451368;28;658047;-70
2021/06/20 06:54:51;;;;;;;7.43;4.23;;;23.80;99.90;;;;;;4432931;28;656710;-70
2021/06/20 06:57:38;;;;;;;6.20;4.10;;;23.80;99.90;;;;;;4409985;28;656639;-69
2021/06/20 07:00:27;;;;;;;10.73;3.97;;;24.00;99.90;;;;;;4451603;28;657819;-70
2021/06/20 07:03:15;;;;;;;10.60;4.17;;;24.10;99.90;;;;;;4432140;28;658272;-70
2021/06/20 07:06:03;;;;;;;4.67;3.60;;;24.20;99.90;;;;;;4438101;28;657518;-69
2021/06/20 07:08:51;;;;;;;4.00;3.57;;;24.40;99.90;;;;;;4454415;28;657411;-70
2021/06/20 07:11:39;;;;;;;6.20;3.60;;;24.40;99.90;;;;;;4432552;28;656380;-70
2021/06/20 07:14:26;;;;;;;4.23;3.43;;;24.50;99.90;;;;;;4451545;28;657299;-69
2021/06/20 07:17:15;;;;;;;4.07;2.97;;;24.60;99.90;;;;;;4432438;28;656695;-69
2021/06/20 07:20:04;;;;;;;6.43;3.40;;;24.80;99.90;;;;;;4432259;28;656628;-69
2021/06/20 07:22:52;;;;;;;3.37;3.07;;;24.90;99.90;;;;;;4449764;28;656102;-70
2021/06/20 07:25:39;;;;;;;3.37;2.80;;;25.10;99.90;;;;;;4432383;28;656755;-70
2021/06/20 07:28:27;;;;;;;3.70;3.10;;;25.30;99.90;;;;;;4451357;28;656868;-70
2021/06/20 07:31:14;;;;;;;5.57;2.90;;;25.40;99.90;;;;;;4428151;28;658090;-70
2021/06/20 07:34:03;;;;;;;7.07;3.20;;;25.50;99.90;;;;;;4451326;28;656870;-70
2021/06/20 07:36:51;;;;;;;5.38;3.15;;;25.70;99.90;;;;;;4428222;28;656819;-70
2021/06/20 07:39:39;;;;;;;5.60;2.70;;;25.70;99.90;;;;;;4432218;28;657079;-70
2021/06/20 07:42:26;;;;;;;3.85;2.75;;;25.90;99.90;;;;;;4451218;28;656872;-70
2021/06/20 07:45:15;;;;;;;5.13;2.65;;;26.20;99.90;;;;;;4429276;28;657117;-70
2021/06/20 07:48:03;;;;;;;3.72;2.65;;;26.40;99.90;;;;;;4448309;28;656590;-68
2021/06/20 07:50:52;;;;;;;6.82;2.60;;;26.40;99.90;;;;;;4454777;28;657830;-70
2021/06/20 07:53:39;;;;;;;3.10;2.60;;;26.50;99.90;;;;;;4427880;28;658443;-69
2021/06/20 07:56:27;;;;;;;3.72;2.72;;;26.60;99.90;;;;;;4450744;28;656895;-70
2021/06/20 07:59:14;;;;;;;5.20;2.42;;;26.80;99.90;;;;;;4427840;28;658045;-70
2021/06/20 08:02:02;;;;;;;2.55;2.35;;;27.00;99.90;;;;;;4450916;28;656436;-70
2021/06/20 08:04:50;;;;;;;3.08;2.33;;;27.30;99.90;;;;;;4428183;28;657692;-69
2021/06/20 08:07:39;;;;;;;4.97;2.63;;;27.20;99.90;;;;;;4448015;28;656808;-69
2021/06/20 08:10:27;;;;;;;5.35;2.38;;;27.40;99.90;;;;;;4451010;28;656649;-70
2021/06/20 08:13:16;;;;;;;4.07;2.40;;;27.40;99.90;;;;;;4427788;28;657874;-70
2021/06/20 08:16:04;;;;;;;4.00;2.50;;;27.60;99.90;;;;;;4431804;28;656567;-69
2021/06/20 08:18:51;;;;;;;2.30;2.10;;;27.70;99.90;;;;;;4453097;28;656746;-70
2021/06/20 08:21:40;;;;;;;3.80;2.30;;;28.00;99.90;;;;;;4431917;28;657161;-69
2021/06/20 08:24:29;;;;;;;2.58;2.13;;;28.00;99.90;;;;;;4448435;28;656488;-69
2021/06/20 08:27:17;;;;;;;2.40;2.20;;;28.30;99.90;;;;;;4454066;28;656332;-70
2021/06/20 08:30:06;;;;;;;3.60;2.50;;;28.40;99.00;;;;;;4431381;28;658030;-70
2021/06/20 08:32:53;;;;;;;2.85;2.47;;;28.60;99.90;;;;;;4435261;28;656521;-70
2021/06/20 08:35:41;;;;;;;2.63;2.42;;;28.90;99.90;;;;;;4454228;28;657343;-70
2021/06/20 08:38:28;;;;;;;3.33;2.42;;;29.00;99.70;;;;;;4435249;28;656684;-70
2021/06/20 08:41:18;;;;;;;2.45;2.13;;;29.10;98.80;;;;;;4454094;28;657039;-70
2021/06/20 08:44:15;;;;;;;4.75;2.25;;;29.20;97.00;;;;;;4430266;28;657776;-70
2021/06/20 08:47:04;;;;;;;3.58;2.72;;;29.30;95.60;;;;;;4414059;28;656901;-69
2021/06/20 08:49:51;;;;;;;5.05;2.42;;;29.30;96.80;;;;;;4454013;28;656762;-70
2021/06/20 08:52:39;;;;;;;6.30;2.75;;;29.30;95.30;;;;;;4430965;28;656790;-70
2021/06/20 08:55:27;;;;;;;4.97;2.45;;;29.50;93.90;;;;;;4453715;28;656442;-71
2021/06/20 08:58:21;;;;;;;3.75;2.47;;;29.70;93.40;;;;;;4430856;28;658764;-70
2021/06/20 09:01:09;;;;;;;2.38;2.13;;;29.60;94.20;;;;;;4412111;28;657095;-70
2021/06/20 09:03:57;;;;;;;3.75;2.47;;;29.50;90.00;;;;;;4453565;28;656987;-70
2021/06/20 09:06:50;;;;;;;2.97;2.47;;;29.60;92.00;;;;;;4434817;28;657397;-70
2021/06/20 09:09:38;;;;;;;4.93;2.20;;;29.80;91.50;;;;;;4427415;28;657091;-69
2021/06/20 09:12:27;;;;;;;3.45;2.17;;;29.90;90.30;;;;;;4452974;28;657598;-71
2021/06/20 09:15:18;;;;;;;4.05;2.42;;;30.00;86.40;;;;;;4434692;28;656759;-70
2021/06/20 09:18:07;;;;;;;4.35;2.42;;;30.10;87.40;;;;;;4430409;28;658052;-70
2021/06/20 09:20:56;;;;;;;4.18;2.20;;;30.40;87.40;;;;;;4433610;28;657768;-70
2021/06/20 09:23:44;;;;;;;3.28;2.97;;;30.50;86.30;;;;;;4434379;28;657049;-70
2021/06/20 09:26:36;;;;;;;5.05;2.75;;;30.80;84.70;;;;;;4452774;28;657159;-70
2021/06/20 09:29:29;;;;;;;4.28;2.38;;;31.00;84.70;;;;;;4406973;28;656948;-70
2021/06/20 09:32:19;;;;;;;2.47;2.20;;;30.80;84.30;;;;;;4430320;28;656633;-70
2021/06/20 09:35:08;;;;;;;5.28;2.47;;;30.90;85.40;;;;;;4430373;28;656890;-70
2021/06/20 09:37:56;;;;;;;2.75;2.55;;;31.10;83.60;;;;;;4430399;28;656712;-70
2021/06/20 09:40:44;;;;;;;2.20;2.00;;;30.90;82.00;;;;;;4434357;28;656267;-70
2021/06/20 09:43:32;;;;;;;2.38;2.00;;;31.20;82.50;;;;;;4452909;28;656641;-70
2021/06/20 09:46:20;;;;;;;4.95;2.38;;;31.50;77.10;;;;;;4433942;28;656942;-69
2021/06/20 09:49:10;;;;;;;3.65;2.10;;;31.70;76.90;;;;;;4433958;28;656717;-69
2021/06/20 09:51:57;;;;;;;3.10;2.33;;;31.80;77.10;;;;;;4452712;28;656398;-70
2021/06/20 09:54:52;;;;;;;3.27;2.40;;;32.10;74.80;;;;;;4433971;28;657438;-70
2021/06/20 09:57:42;;;;;;;3.63;2.30;;;31.90;77.00;;;;;;4406957;28;657747;-70
2021/06/20 10:00:40;;;;;;;4.68;2.70;;;32.00;72.90;;;;;;4433800;28;656445;-70
2021/06/20 10:03:28;;;;;;;3.88;1.95;;;32.40;71.60;;;;;;4415617;28;656772;-69
2021/06/20 10:06:17;;;;;;;2.97;2.10;;;32.50;70.20;;;;;;4452421;28;658310;-70
2021/06/20 10:09:06;;;;;;;2.35;2.15;;;32.50;70.00;;;;;;4433871;28;656892;-71
2021/06/20 10:11:54;;;;;;;3.47;2.47;;;32.60;69.10;;;;;;4432947;28;656478;-70
2021/06/20 10:14:43;;;;;;;5.65;2.15;;;32.70;69.80;;;;;;4452821;28;656637;-70
2021/06/20 10:17:33;;;;;;;4.63;2.33;;;32.90;66.70;;;;;;4429581;28;657416;-70
2021/06/20 10:20:20;;;;;;;3.10;2.33;;;32.60;64.50;;;;;;4429647;28;657697;-70
2021/06/20 10:23:19;;;;;;;2.90;2.17;;;32.70;63.60;;;;;;4433242;28;656439;-70
2021/06/20 10:26:07;;;;;;;5.22;2.72;;;32.60;63.00;;;;;;4429208;28;657044;-71
2021/06/20 10:28:55;;;;;;;9.38;3.72;;;32.90;65.80;;;;;;4429723;28;657975;-71
2021/06/20 10:31:43;;;;;;;5.85;3.38;;;32.70;66.50;;;;;;4448604;28;656585;-70
2021/06/20 10:34:32;;;;;;;3.67;3.08;;;32.60;65.10;;;;;;4451885;28;657776;-71
2021/06/20 10:37:20;;;;;;;5.75;3.45;;;32.50;64.90;;;;;;4429438;28;658117;-71
2021/06/20 10:40:23;;;;;;;5.70;3.50;;;32.60;64.20;;;;;;4432392;28;656753;-70
2021/06/20 10:43:15;;;;;;;4.03;3.05;;;32.60;66.60;;;;;;4429301;28;657431;-71
2021/06/20 10:46:13;;;;;;;5.80;3.00;;;32.90;66.20;;;;;;4426011;28;656933;-70
2021/06/20 10:49:01;;;;;;;4.97;3.03;;;32.90;65.80;;;;;;4429037;28;656977;-71
2021/06/20 10:51:49;;;;;;;5.73;3.03;;;32.90;65.40;;;;;;4432820;28;656676;-70
2021/06/20 10:54:37;;;;;;;5.07;2.80;;;32.90;65.80;;;;;;4451464;28;656518;-71
2021/06/20 10:57:29;;;;;;;4.05;3.17;;;32.60;65.70;;;;;;4429025;28;658150;-71
2021/06/20 11:00:27;;;;;;;4.55;3.30;;;32.90;65.80;;;;;;4428491;28;656406;-71
2021/06/20 11:03:21;;;;;;;3.58;3.13;;;32.70;64.50;;;;;;4405641;28;657338;-71
2021/06/20 11:06:13;;;;;;;3.77;3.00;;;33.10;68.10;;;;;;4405914;28;658205;-71
2021/06/20 11:09:02;;;;;;;4.60;2.73;;;32.80;66.10;;;;;;4428589;28;657791;-71
2021/06/20 11:11:50;;;;;;;4.93;2.95;;;33.00;62.30;;;;;;4432500;28;656662;-71
2021/06/20 11:14:44;;;;;;;3.33;3.00;;;33.40;61.20;;;;;;4432471;28;656545;-70
2021/06/20 11:17:35;;;;;;;2.75;2.53;;;33.00;62.30;;;;;;4428765;28;657122;-71
2021/06/20 11:20:23;;;;;;;3.90;2.60;;;33.20;62.50;;;;;;4409413;28;656939;-70
2021/06/20 11:23:12;;;;;;;4.38;2.80;;;33.30;61.20;;;;;;4451429;28;657691;-70
2021/06/20 11:26:01;;;;;;;7.32;2.85;;;33.50;61.50;;;;;;4428032;28;658184;-70
2021/06/20 11:28:59;;;;;;;6.13;2.83;;;33.60;60.60;;;;;;4432536;28;656234;-69
2021/06/20 11:31:50;;;;;;;5.10;2.92;;;33.70;59.80;;;;;;4433626;28;656430;-70
2021/06/20 11:34:38;;;;;;;6.05;2.70;;;33.60;62.10;;;;;;4434653;28;656677;-69
2021/06/20 11:37:27;;;;;;;3.67;2.40;;;33.70;58.80;;;;;;4453921;28;657159;-71
2021/06/20 11:40:16;;;;;;;4.18;2.75;;;33.90;57.70;;;;;;4432389;28;656635;-70
2021/06/20 11:43:04;;;;;;;2.67;2.40;;;33.90;56.70;;;;;;4428434;28;656352;-70
2021/06/20 11:45:52;;;;;;;6.65;2.80;;;33.80;57.10;;;;;;4450487;28;656453;-70
2021/06/20 11:48:50;;;;;;;3.13;2.35;;;33.80;57.50;;;;;;4427902;28;658644;-71
2021/06/20 11:51:42;;;;;;;5.28;2.75;;;33.90;57.90;;;;;;4411320;28;657388;-69
2021/06/20 11:54:30;;;;;;;2.97;2.60;;;34.20;58.20;;;;;;4428058;28;657735;-70
2021/06/20 11:57:26;;;;;;;3.22;2.58;;;34.40;58.20;;;;;;4431593;28;656372;-69
2021/06/20 12:00:16;;;;;;;10.65;2.80;;;34.10;57.00;;;;;;4431817;28;656987;-70
2021/06/20 12:03:04;;;;;;;4.97;2.83;;;33.90;57.60;;;;;;4430775;28;657592;-70
2021/06/20 12:05:59;;;;;;;3.60;2.70;;;34.00;58.20;;;;;;4450460;28;657442;-70
2021/06/20 12:08:47;;;;;;;3.97;2.60;;;34.30;60.20;;;;;;4428045;28;656476;-70
2021/06/20 12:11:35;;;;;;;3.65;2.50;;;34.20;57.90;;;;;;4428024;28;657469;-70
2021/06/20 12:14:23;;;;;;;3.25;2.70;;;34.30;54.80;;;;;;4434565;28;656298;-69
2021/06/20 12:17:15;;;;;;;4.63;2.90;;;34.50;55.80;;;;;;4450674;28;656807;-70
2021/06/20 12:20:03;;;;;;;3.10;2.78;;;34.50;56.40;;;;;;4408960;28;656741;-69
2021/06/20 12:22:52;;;;;;;3.63;2.83;;;34.70;56.70;;;;;;4450561;28;657707;-71
2021/06/20 12:25:44;;;;;;;3.10;2.80;;;34.30;55.70;;;;;;4427066;28;657374;-71
2021/06/20 12:28:31;;;;;;;6.27;2.70;;;34.70;57.40;;;;;;4423735;28;657172;-71
2021/06/20 12:31:19;;;;;;;7.15;2.60;;;35.00;55.60;;;;;;4431656;28;656449;-70
2021/06/20 12:34:08;;;;;;;3.17;2.83;;;35.20;54.50;;;;;;4450606;28;657078;-71
2021/06/20 12:37:02;;;;;;;4.10;2.40;;;35.20;54.60;;;;;;4427729;28;657172;-70
2021/06/20 12:39:53;;;;;;;2.88;2.10;;;35.20;54.70;;;;;;4404969;28;658150;-70
2021/06/20 12:42:45;;;;;;;2.80;2.50;;;35.10;52.10;;;;;;4427678;28;658225;-71
2021/06/20 12:45:33;;;;;;;2.93;1.73;;;35.10;51.80;;;;;;4427259;28;656270;-70
2021/06/20 12:48:22;;;;;;;4.03;2.10;;;35.40;49.40;;;;;;4427542;28;658355;-70
2021/06/20 12:51:11;;;;;;;2.42;1.95;;;35.20;50.00;;;;;;4431777;28;658399;-70
2021/06/20 12:54:04;;;;;;;3.30;2.42;;;35.10;49.40;;;;;;4431535;28;657010;-70
2021/06/20 12:57:02;;;;;;;3.80;2.43;;;35.00;51.40;;;;;;4427689;28;656869;-70
2021/06/20 12:59:50;;;;;;;3.72;2.28;;;35.40;51.40;;;;;;4427240;28;657465;-70
2021/06/20 13:02:38;;;;;;;2.47;2.15;;;35.50;51.40;;;;;;4435711;28;656498;-69
2021/06/20 13:05:34;;;;;;;3.47;2.47;;;35.50;50.20;;;;;;4454240;28;657651;-70
2021/06/20 13:08:28;;;;;;;4.75;1.90;;;35.30;50.40;;;;;;4430626;28;656287;-70
2021/06/20 13:11:16;;;;;;;5.20;2.20;;;35.50;48.00;;;;;;4430570;28;656845;-70
2021/06/20 13:14:13;;;;;;;2.28;2.00;;;35.80;47.80;;;;;;4434609;28;656388;-70
2021/06/20 13:17:01;;;;;;;5.10;2.20;;;35.90;47.60;;;;;;4430535;28;657354;-70
2021/06/20 13:19:48;;;;;;;2.63;1.58;;;36.20;48.00;;;;;;4434476;28;656926;-70
2021/06/20 13:22:36;;;;;;;2.35;2.15;;;36.20;46.30;;;;;;4453258;28;657498;-71
2021/06/20 13:25:24;;;;;;;3.35;1.70;;;36.40;44.60;;;;;;4434524;28;657103;-70
2021/06/20 13:28:12;;;;;;;1.90;1.80;;;36.10;44.80;;;;;;4453092;28;656622;-69
2021/06/20 13:31:02;;;;;;;2.20;2.00;;;35.80;47.80;;;;;;4430349;28;658047;-69
2021/06/20 13:33:54;;;;;;;2.38;1.80;;;35.80;49.00;;;;;;4434372;28;656740;-69
2021/06/20 13:36:42;;;;;;;5.03;2.10;;;36.20;45.70;;;;;;4428074;28;657601;-69
2021/06/20 13:39:31;;;;;;;2.53;1.80;;;36.60;44.30;;;;;;4430248;28;657684;-69
2021/06/20 13:42:18;;;;;;;2.28;2.08;;;36.60;44.00;;;;;;4434293;28;656340;-69
2021/06/20 13:45:08;;;;;;;4.35;2.40;;;36.80;44.70;;;;;;4456934;28;656905;-70
2021/06/20 13:47:57;;;;;;;6.32;2.00;;;36.60;44.30;;;;;;4428398;28;658315;-69
2021/06/20 13:50:45;;;;;;;3.03;2.17;;;36.80;45.30;;;;;;4433821;28;657301;-69
2021/06/20 13:53:33;;;;;;;6.30;1.90;;;36.60;46.20;;;;;;4436570;28;656805;-69
2021/06/20 13:56:21;;;;;;;3.30;2.10;;;36.90;45.90;;;;;;4452721;28;657087;-70
2021/06/20 13:59:09;;;;;;;2.10;1.87;;;36.60;44.90;;;;;;4432846;28;657055;-69
2021/06/20 14:01:57;;;;;;;2.22;2.00;;;36.10;43.60;;;;;;4450763;28;656737;-70
2021/06/20 14:04:46;;;;;;;4.55;1.80;;;36.10;44.90;;;;;;4429753;28;657745;-69
2021/06/20 14:07:35;;;;;;;2.35;1.83;;;36.20;47.10;;;;;;4433772;28;656438;-70
2021/06/20 14:10:23;;;;;;;1.90;1.80;;;36.20;45.70;;;;;;4448324;28;656639;-69
2021/06/20 14:13:11;;;;;;;2.58;1.77;;;36.00;44.10;;;;;;4456600;28;656749;-70
2021/06/20 14:15:58;;;;;;;3.28;1.83;;;36.30;42.90;;;;;;4432265;28;657734;-69
2021/06/20 14:18:46;;;;;;;4.88;2.00;;;36.60;42.90;;;;;;4452676;28;657190;-70
2021/06/20 14:21:36;;;;;;;2.70;1.93;;;36.50;44.30;;;;;;4430695;28;656545;-69
2021/06/20 14:24:24;;;;;;;2.17;1.98;;;36.70;43.60;;;;;;4433383;28;656231;-69
2021/06/20 14:27:12;;;;;;;7.82;2.10;;;36.50;43.50;;;;;;4452109;28;656765;-70